Andrews A F B, District of Columbia
Current Conditions -  °F | °C
As of 3:58 AM on Sunday 26 Oct 2014 (Local Time) from KADW Reporting Station
Clear Clear  
Wind Chill: 59°   Ceiling: Unl
Heat Index: 59°   Visibility: 10mi
Dew Point: 44°   Wind: 14mph
Humidity: 58%   Direction: 290°WNW
Pressure: 29.68"   Gusts: 21mph
Location:  38.8022°N, 76.8857°W
Report Text: KADW 260758Z AUTO 29012G18KT 10SM CLR 15/07 A2968 RMK AO2 SLP056 T01490066 $
Loading
Personal Weather Stations






























Interactive Weather Map New forecast layout! Learn more

10-Day Weather Forecast

Advertisements
Track Severe Weather on mobile